Airfield :
LOGIN :

Register | Disclaimer

   EN    FR    IT 

 










Legend :    VFR   Marginal VFR   IFR   Intensive IFR   Very Intensive IFR
Visi :
Ceiling :
>= 8 km
>= 3000ft
5 to 8 km
1000 to 3000 ft
1500m to 5 km
500 to 1000 ft
800 to 1500m
200 to 500 ft
< 800m
< 200 ft
Symbols :   Thunderstorms  Fog  Heavy snow  Heavy precipitations  Wind > 20 kt
SIGMETs :     Misc.  Thunderstorms  Icing  Turbulence  Mountain Waves  Volcanic Ashes







- Airport Elevation : 412 ft
- IATA code : ORE
- Download approach charts


LFOJ - Orleans

CURRENT METAR :
  • 201930Z AUTO 25009KT 9999 FEW047 BKN080 22/18 Q1016

EXPIRED METARs :
  • 201900Z AUTO 26008KT 9999 SCT046 BKN058 BKN080 22/18 Q1016
  • 201830Z AUTO 27010KT 9999 FEW046/// SCT058/// BKN070/// ///CB 21/18 Q1015
  • 201800Z AUTO 24018G31KT 9999 BKN047/// BKN064/// BKN080/// ///CB 26/16 Q1015
  • 201730Z AUTO 25008KT 9999 BKN045 BKN056 BKN140 25/16 Q1014
  • 201700Z AUTO 29007KT 220V320 9999 BKN046 BKN052 OVC220 25/17 Q1014

Expired Forecast.
No reported NOTAMs for that airfield.



MET'MAP, your aeronautical weather chart ! - Copyright ORBIFLY December 2007 - Disclaimer

ORBIFLY MET'MAP TEAM :

Programming & Development : Alexandra Zaïnal
Concept & Development : Baudouin d'Aumeries
Co-Development & Prog : Marc-Olivier Méhu
Technical & hardware support : Manuel Goepfert

Contact : metmap@orbifly.com




SOURCES & CREDITS :

   NOAA